Time;durP1;ratioP1;P1;durP2;ratioP2;P2;SDS_P1;SDS_P2;PMS_P1;PMS_P2;Temp;Humidity;BMP_temperature;BMP_pressure;BME280_temperature;BME280_humidity;BME280_pressure;Samples;Min_cycle;Max_cycle;Signal;HPM_P1;HPM_P2
2022/09/15 00:00:48;;;;;;;2.72;0.90;;;;;;;;;;5042806;28;20040;-59
2022/09/15 00:03:13;;;;;;;2.05;1.15;;;;;;;21.96;51.25;100591.25;5030430;28;20034;-59
2022/09/15 00:05:38;;;;;;;2.55;0.90;;;;;;;21.95;51.06;100589.53;5038452;28;20048;-58
2022/09/15 00:08:03;;;;;;;2.33;1.00;;;;;;;21.95;51.14;100599.53;5037328;28;20405;-59
2022/09/15 00:10:29;;;;;;;2.22;0.80;;;;;;;21.93;51.03;100590.78;5041023;28;20129;-59
2022/09/15 00:12:54;;;;;;;2.60;1.25;;;;;;;21.94;50.89;100596.00;5035011;28;20018;-58
2022/09/15 00:15:20;;;;;;;1.70;0.95;;;;;;;21.93;51.20;100591.63;5032681;28;20021;-58
2022/09/15 00:17:50;;;;;;;1.40;0.80;;;;;;;21.93;51.14;100591.63;5032292;28;20056;-59
2022/09/15 00:20:17;;;;;;;1.80;0.90;;;;;;;21.92;50.86;100583.72;5058337;28;20055;-58
2022/09/15 00:22:43;;;;;;;1.92;1.00;;;;;;;21.93;51.23;100585.38;5043098;28;20018;-59
2022/09/15 00:25:09;;;;;;;1.45;0.90;;;;;;;21.90;51.12;100581.19;5044365;28;20029;-58
2022/09/15 00:27:34;;;;;;;1.60;0.70;;;;;;;21.90;51.30;100580.34;5049146;28;20027;-58
2022/09/15 00:30:00;;;;;;;1.60;0.88;;;;;;;21.89;51.05;100584.09;5064643;28;20109;-61
2022/09/15 00:32:25;;;;;;;1.90;1.05;;;;;;;21.90;50.86;100589.31;5061075;28;20028;-59
2022/09/15 00:34:50;;;;;;;1.27;0.70;;;;;;;21.91;51.25;100592.84;5052736;28;20021;-58
2022/09/15 00:37:16;;;;;;;2.10;0.73;;;;;;;21.91;51.23;100592.84;5049711;28;20041;-59
2022/09/15 00:39:42;;;;;;;2.10;1.02;;;;;;;21.80;51.08;100567.16;5044615;28;20058;-59
2022/09/15 00:42:14;;;;;;;2.45;0.90;;;;;;;21.89;51.29;100587.63;5040451;28;20052;-59
2022/09/15 00:44:55;;;;;;;1.88;0.95;;;;;;;21.79;50.78;100567.34;5030648;28;20029;-58
2022/09/15 00:47:23;;;;;;;1.77;0.85;;;;;;;21.85;51.01;100589.06;5016549;28;20557;-59
2022/09/15 00:49:53;;;;;;;1.30;0.82;;;;;;;21.87;50.97;100581.56;5038122;28;20079;-59
2022/09/15 00:52:23;;;;;;;1.80;0.85;;;;;;;21.88;50.86;100591.38;5032458;28;20014;-58
2022/09/15 00:54:53;;;;;;;2.15;0.85;;;;;;;21.84;50.89;100583.84;5040722;28;20135;-59
2022/09/15 00:57:30;;;;;;;1.08;0.80;;;;;;;21.87;50.87;100581.56;5026127;28;20028;-60
2022/09/15 00:59:59;;;;;;;1.58;0.70;;;;;;;21.86;50.98;100589.88;5012677;28;20045;-60
2022/09/15 01:02:29;;;;;;;2.03;0.65;;;;;;;21.84;51.20;100591.97;5041091;28;20025;-59
2022/09/15 01:04:56;;;;;;;1.98;0.95;;;;;;;21.80;51.04;100585.28;5043501;28;20080;-59
2022/09/15 01:07:28;;;;;;;1.50;0.63;;;;;;;21.86;50.96;100603.44;5029004;28;20021;-59
2022/09/15 01:09:56;;;;;;;1.42;0.85;;;;;;;21.83;50.75;100601.94;5026416;28;20022;-58
2022/09/15 01:12:23;;;;;;;0.70;0.60;;;;;;;21.84;51.11;100603.63;5043861;28;20024;-58
2022/09/15 01:14:48;;;;;;;5.32;1.60;;;;;;;21.77;50.94;100589.19;5014697;28;20026;-58
2022/09/15 01:17:22;;;;;;;1.48;0.70;;;;;;;21.83;50.96;100596.53;5040420;28;20049;-60
2022/09/15 01:20:06;;;;;;;1.05;0.60;;;;;;;21.82;50.92;100589.44;5033014;28;20041;-60
2022/09/15 01:22:50;;;;;;;1.48;0.90;;;;;;;21.82;50.92;100589.44;5042572;28;20075;-59
2022/09/15 01:25:43;;;;;;;1.45;0.85;;;;;;;21.82;50.91;100594.03;5043215;28;20033;-59
2022/09/15 01:28:46;;;;;;;2.03;0.70;;;;;;;21.80;50.90;100596.94;5033027;28;20545;-58
2022/09/15 01:31:26;;;;;;;1.58;0.80;;;;;;;21.81;51.02;100589.66;5029946;28;20013;-59
2022/09/15 01:33:59;;;;;;;1.10;0.55;;;;;;;21.73;50.82;100574.38;5043755;28;20026;-59
2022/09/15 01:36:43;;;;;;;1.48;0.70;;;;;;;21.79;50.72;100589.84;5053669;28;20013;-59
2022/09/15 01:39:24;;;;;;;1.10;0.55;;;;;;;21.78;50.96;100593.56;5023990;28;20060;-59
2022/09/15 01:41:53;;;;;;;1.13;0.85;;;;;;;21.77;51.23;100591.91;5005112;28;20055;-59
2022/09/15 01:44:22;;;;;;;1.85;0.82;;;;;;;21.78;50.96;100593.56;5033105;28;20167;-59
2022/09/15 01:46:53;;;;;;;2.03;0.70;;;;;;;21.77;50.79;100600.03;5056754;28;20031;-59
2022/09/15 01:49:25;;;;;;;0.88;0.73;;;;;;;21.74;51.10;100596.88;5037494;28;20092;-58
2022/09/15 01:51:52;;;;;;;0.82;0.60;;;;;;;21.70;50.99;100588.28;5043676;28;20021;-59
2022/09/15 01:54:34;;;;;;;1.55;0.90;;;;;;;21.77;51.21;100601.91;5033028;28;20038;-58
2022/09/15 01:57:00;;;;;;;0.88;0.63;;;;;;;21.76;51.27;100603.75;5037066;28;20060;-59
2022/09/15 01:59:26;;;;;;;1.17;0.60;;;;;;;21.75;51.06;100607.50;5034489;28;20048;-59
2022/09/15 02:01:58;;;;;;;1.45;0.77;;;;;;;21.75;50.84;100603.94;5028398;28;20033;-59
2022/09/15 02:04:49;;;;;;;1.13;0.65;;;;;;;21.75;51.14;100622.88;5033375;28;20022;-58
2022/09/15 02:07:30;;;;;;;1.35;0.50;;;;;;;21.71;50.86;100623.28;5037588;28;20478;-59
2022/09/15 02:10:04;;;;;;;1.70;0.60;;;;;;;21.74;50.83;100632.03;5043397;28;20030;-59
2022/09/15 02:12:34;;;;;;;1.52;0.70;;;;;;;21.63;50.97;100618.00;5018933;28;20024;-59
2022/09/15 02:15:09;;;;;;;1.20;0.70;;;;;;;21.73;50.90;100635.78;5042024;28;20036;-60
2022/09/15 02:17:41;;;;;;;1.02;0.55;;;;;;;21.71;51.08;100626.00;5029458;28;20508;-59
2022/09/15 02:20:14;;;;;;;1.15;0.80;;;;;;;21.71;51.08;100626.00;5023545;28;20026;-59
2022/09/15 02:22:42;;;;;;;1.45;0.70;;;;;;;21.71;50.76;100628.72;5033446;28;20033;-59
2022/09/15 02:25:10;;;;;;;1.30;0.90;;;;;;;21.71;50.89;100622.47;5009189;28;20025;-60
2022/09/15 02:27:44;;;;;;;1.02;0.70;;;;;;;21.67;50.97;100616.59;5025225;28;20093;-59
2022/09/15 02:30:12;;;;;;;1.02;0.60;;;;;;;21.69;50.81;100621.81;5029007;28;20021;-58
2022/09/15 02:32:41;;;;;;;1.67;0.60;;;;;;;21.69;50.85;100611.81;5013043;28;20026;-59
2022/09/15 02:35:08;;;;;;;0.85;0.60;;;;;;;21.59;50.80;100599.66;5022594;28;20662;-59
2022/09/15 02:37:35;;;;;;;1.42;0.60;;;;;;;21.66;51.00;100622.19;5015554;28;20034;-59
2022/09/15 02:40:00;;;;;;;4.90;0.68;;;;;;;21.69;50.97;100619.09;5037054;28;20053;-59
2022/09/15 02:42:28;;;;;;;1.52;0.60;;;;;;;21.67;50.72;100610.34;5017887;28;20036;-59
2022/09/15 02:44:53;;;;;;;1.17;0.70;;;;;;;21.68;50.75;100609.31;5029105;28;20670;-59
2022/09/15 02:47:19;;;;;;;1.00;0.70;;;;;;;21.66;50.80;100611.34;5037381;28;20018;-60
2022/09/15 02:49:44;;;;;;;0.88;0.60;;;;;;;21.65;51.08;100615.09;5038680;28;20075;-60
2022/09/15 02:52:10;;;;;;;1.85;0.80;;;;;;;21.66;51.07;100614.06;5042801;28;20489;-60
2022/09/15 02:54:35;;;;;;;1.02;0.77;;;;;;;21.64;51.04;100618.84;5036419;28;20025;-59
2022/09/15 02:57:00;;;;;;;1.60;0.60;;;;;;;21.59;51.09;100599.66;5030593;28;20043;-59
2022/09/15 03:00:11;;;;;;;1.50;0.63;;;;;;;21.64;50.84;100606.16;5034059;28;20025;-59
2022/09/15 03:02:11;;;;;;;1.45;0.70;;;;;;;21.65;50.79;100613.22;5045107;28;20045;-59
2022/09/15 03:04:36;;;;;;;0.90;0.60;;;;;;;21.64;50.92;100613.44;5046030;28;20030;-60
2022/09/15 03:07:02;;;;;;;1.15;0.50;;;;;;;21.63;50.77;100617.19;5046134;28;20029;-60
2022/09/15 03:09:27;;;;;;;1.13;0.60;;;;;;;21.61;51.03;100611.09;5046405;28;20029;-59
2022/09/15 03:11:52;;;;;;;1.10;1.00;;;;;;;21.63;50.93;100611.75;5045910;28;20578;-59
2022/09/15 03:14:17;;;;;;;1.15;0.85;;;;;;;21.61;51.15;100609.22;5060418;28;20040;-59
2022/09/15 03:16:43;;;;;;;0.57;0.45;;;;;;;21.62;51.07;100610.94;5045199;28;20033;-60
2022/09/15 03:19:08;;;;;;;1.63;0.70;;;;;;;21.60;50.73;100615.69;5046308;28;20091;-59
2022/09/15 03:21:34;;;;;;;1.60;0.55;;;;;;;21.60;51.05;100620.25;5038037;28;20025;-58
2022/09/15 03:23:59;;;;;;;1.20;0.70;;;;;;;21.61;51.11;100613.81;5040034;28;20029;-59
2022/09/15 03:26:25;;;;;;;1.00;0.70;;;;;;;21.60;51.08;100615.69;5027013;28;20498;-58
2022/09/15 03:28:50;;;;;;;0.90;0.80;;;;;;;21.60;51.15;100614.84;5036633;28;20052;-60
2022/09/15 03:31:15;;;;;;;0.88;0.60;;;;;;;21.59;51.05;100613.19;5031483;28;20087;-58
2022/09/15 03:33:41;;;;;;;1.30;0.75;;;;;;;21.53;50.97;100612.06;5037151;28;20135;-59
2022/09/15 03:36:07;;;;;;;1.27;0.52;;;;;;;21.58;50.77;100620.47;5039211;28;20029;-59
2022/09/15 03:38:32;;;;;;;1.42;0.70;;;;;;;21.58;50.88;100633.13;5045036;28;20037;-58
2022/09/15 03:41:03;;;;;;;0.98;0.60;;;;;;;21.57;51.03;100632.28;5033567;28;20026;-59
2022/09/15 03:43:30;;;;;;;1.23;0.70;;;;;;;21.58;50.85;100633.13;5039573;28;20488;-59
2022/09/15 03:45:55;;;;;;;0.90;0.63;;;;;;;21.53;51.19;100635.59;5036780;28;20030;-59
2022/09/15 03:48:21;;;;;;;0.98;0.52;;;;;;;21.40;51.18;100618.19;5030889;28;20111;-59
2022/09/15 03:50:47;;;;;;;1.08;0.73;;;;;;;21.53;51.02;100647.22;5036112;28;20034;-59
2022/09/15 03:53:12;;;;;;;1.45;0.80;;;;;;;21.55;50.93;100656.00;5039595;28;20022;-59
2022/09/15 03:55:37;;;;;;;1.15;0.60;;;;;;;21.55;51.12;100655.19;5032589;28;20033;-59
2022/09/15 03:58:02;;;;;;;1.63;0.82;;;;;;;21.53;50.92;100639.13;5027357;28;20037;-59
2022/09/15 04:00:28;;;;;;;0.68;0.55;;;;;;;21.55;51.19;100639.78;5031241;28;20029;-59
2022/09/15 04:02:53;;;;;;;1.30;0.93;;;;;;;21.55;51.14;100631.66;5033938;28;20548;-59
2022/09/15 04:05:19;;;;;;;1.58;0.60;;;;;;;21.55;50.74;100633.53;5038853;28;20038;-60
2022/09/15 04:07:44;;;;;;;1.60;0.60;;;;;;;21.55;50.67;100638.94;5034570;28;20029;-60
2022/09/15 04:10:10;;;;;;;0.80;0.52;;;;;;;21.54;51.00;100631.88;5029392;28;20030;-59
2022/09/15 04:12:35;;;;;;;1.17;0.55;;;;;;;21.53;51.08;100630.16;5045004;28;20017;-60
2022/09/15 04:15:01;;;;;;;1.02;0.80;;;;;;;21.53;50.95;100636.41;5045193;28;20025;-60
2022/09/15 04:17:26;;;;;;;1.15;0.88;;;;;;;21.53;50.70;100632.88;5044179;28;20470;-61
2022/09/15 04:19:51;;;;;;;0.80;0.60;;;;;;;21.53;51.01;100632.88;5044655;28;20036;-60
2022/09/15 04:22:17;;;;;;;0.70;0.70;;;;;;;21.53;50.58;100636.41;5030663;28;20026;-59
2022/09/15 04:24:43;;;;;;;1.30;0.68;;;;;;;21.39;51.14;100612.97;5044996;28;20045;-59
2022/09/15 04:27:08;;;;;;;1.63;0.80;;;;;;;21.53;50.95;100632.88;5044472;28;20108;-59
2022/09/15 04:29:33;;;;;;;1.35;0.60;;;;;;;21.51;50.97;100629.53;5044414;28;20106;-61
2022/09/15 04:31:58;;;;;;;1.92;0.65;;;;;;;21.52;50.95;100628.50;5042837;28;20068;-61
2022/09/15 04:34:24;;;;;;;1.10;0.70;;;;;;;21.53;51.09;100635.59;5036230;28;20112;-64
2022/09/15 04:36:49;;;;;;;0.75;0.50;;;;;;;21.51;51.21;100630.38;5031821;28;20026;-65
2022/09/15 04:39:14;;;;;;;0.85;0.55;;;;;;;21.54;51.50;100640.81;5038058;28;20149;-64
2022/09/15 04:41:40;;;;;;;0.80;0.40;;;;;;;21.54;51.90;100648.09;5033395;28;20037;-60
2022/09/15 04:44:05;;;;;;;1.30;0.50;;;;;;;21.55;51.69;100636.25;5036578;28;20033;-60
2022/09/15 04:46:30;;;;;;;0.60;0.52;;;;;;;21.55;51.78;100637.06;5041809;28;20496;-60
2022/09/15 04:48:56;;;;;;;2.10;0.60;;;;;;;21.56;51.51;100643.31;5043737;28;20025;-61
2022/09/15 04:51:22;;;;;;;0.60;0.45;;;;;;;21.51;51.72;100624.97;5043048;28;20033;-60
2022/09/15 04:53:48;;;;;;;1.95;0.70;;;;;;;21.55;51.63;100634.38;5042720;28;20028;-60
2022/09/15 04:56:18;;;;;;;0.98;0.80;;;;;;;21.54;51.40;100632.69;5025631;28;20017;-59
2022/09/15 04:58:46;;;;;;;1.50;0.70;;;;;;;21.55;51.58;100625.41;5043512;28;20025;-60
2022/09/15 05:01:17;;;;;;;1.55;0.57;;;;;;;21.53;51.60;100633.72;5042929;28;20021;-60
2022/09/15 05:03:43;;;;;;;1.00;0.60;;;;;;;21.55;51.70;100637.06;5041771;28;20094;-60
2022/09/15 05:06:10;;;;;;;1.15;0.52;;;;;;;21.53;51.46;100627.47;5042415;28;20477;-60
2022/09/15 05:08:36;;;;;;;1.45;0.55;;;;;;;21.44;51.47;100619.47;5042945;28;20039;-60
2022/09/15 05:11:04;;;;;;;1.42;0.60;;;;;;;21.54;51.62;100634.56;5042554;28;20025;-60
2022/09/15 05:13:29;;;;;;;0.60;0.50;;;;;;;21.55;51.43;100638.94;5042900;28;20067;-60
2022/09/15 05:15:54;;;;;;;1.90;0.70;;;;;;;21.56;51.49;100635.22;5043024;28;20029;-60
2022/09/15 05:18:20;;;;;;;0.85;0.50;;;;;;;21.54;51.32;100638.13;5042272;28;20028;-60
2022/09/15 05:20:45;;;;;;;1.65;0.95;;;;;;;21.54;51.65;100634.56;5043151;28;20108;-59
2022/09/15 05:23:10;;;;;;;2.45;0.65;;;;;;;21.51;51.80;100634.94;5042942;28;20655;-59
2022/09/15 05:25:37;;;;;;;0.93;0.57;;;;;;;21.54;51.63;100631.88;5043823;28;20040;-60
2022/09/15 05:28:02;;;;;;;1.00;0.70;;;;;;;21.48;51.75;100625.34;5044438;28;20024;-61
2022/09/15 05:30:28;;;;;;;2.67;0.80;;;;;;;21.53;51.78;100636.41;5044473;28;20052;-59
2022/09/15 05:32:53;;;;;;;1.63;0.57;;;;;;;21.53;51.66;100636.41;5044268;28;20018;-59
2022/09/15 05:35:18;;;;;;;1.38;0.55;;;;;;;21.53;51.88;100633.72;5053623;28;20398;-59
2022/09/15 05:37:44;;;;;;;0.60;0.50;;;;;;;21.54;51.77;100635.41;5043120;28;20414;-59
2022/09/15 05:40:09;;;;;;;0.85;0.52;;;;;;;21.52;51.76;100628.50;5056020;28;20041;-60
2022/09/15 05:42:35;;;;;;;0.70;0.60;;;;;;;21.55;51.75;100628.13;5042893;28;20033;-59
2022/09/15 05:45:00;;;;;;;1.35;0.70;;;;;;;21.53;51.88;100622.88;5042975;28;20068;-59
2022/09/15 05:47:25;;;;;;;1.48;0.60;;;;;;;21.51;51.72;100619.56;5042312;28;20040;-59
2022/09/15 05:49:52;;;;;;;1.02;0.55;;;;;;;21.30;51.92;100589.75;5042787;28;20029;-60
2022/09/15 05:52:18;;;;;;;0.98;0.60;;;;;;;21.51;52.02;100629.53;5042856;28;20077;-60
2022/09/15 05:54:43;;;;;;;0.90;0.60;;;;;;;21.54;51.63;100634.56;5043086;28;20036;-60
2022/09/15 05:57:08;;;;;;;1.73;0.50;;;;;;;21.54;52.04;100634.56;5024464;28;20032;-59
2022/09/15 05:59:34;;;;;;;1.00;0.60;;;;;;;21.51;52.08;100635.78;5042750;28;20033;-60
2022/09/15 06:02:00;;;;;;;1.48;0.75;;;;;;;21.54;52.15;100639.97;5041834;28;20067;-60
2022/09/15 06:04:25;;;;;;;0.80;0.47;;;;;;;21.51;51.87;100629.53;5042389;28;20029;-59
2022/09/15 06:06:51;;;;;;;2.40;0.77;;;;;;;21.52;52.30;100650.97;5033081;28;20101;-61
2022/09/15 06:09:16;;;;;;;1.50;0.63;;;;;;;21.46;52.08;100635.53;5036556;28;20037;-60
2022/09/15 06:11:42;;;;;;;1.48;0.93;;;;;;;21.50;51.98;100650.34;5042257;28;20120;-60
2022/09/15 06:14:07;;;;;;;3.00;0.80;;;;;;;21.54;52.00;100650.81;5042802;28;20849;-60
2022/09/15 06:16:33;;;;;;;1.17;0.60;;;;;;;21.53;51.93;100659.94;5018047;28;20037;-60
2022/09/15 06:18:59;;;;;;;2.63;1.00;;;;;;;21.49;51.87;100651.34;5033029;28;20088;-61
2022/09/15 06:21:28;;;;;;;1.92;0.70;;;;;;;21.55;51.85;100666.00;5036131;28;20047;-60
2022/09/15 06:23:58;;;;;;;2.15;0.98;;;;;;;21.54;51.76;100667.88;5038524;28;20522;-60
2022/09/15 06:26:25;;;;;;;1.23;0.60;;;;;;;21.54;51.71;100662.47;5028573;28;20052;-60
2022/09/15 06:28:52;;;;;;;2.72;0.60;;;;;;;21.55;52.02;100666.00;5046792;28;20036;-60
2022/09/15 06:31:18;;;;;;;1.77;0.63;;;;;;;21.55;51.91;100668.69;5031274;28;20067;-61
2022/09/15 06:33:45;;;;;;;2.95;0.60;;;;;;;21.55;51.91;100672.25;5066342;28;20024;-60
2022/09/15 06:36:12;;;;;;;1.92;1.10;;;;;;;21.53;51.96;100663.47;5032260;28;20128;-60
2022/09/15 06:38:37;;;;;;;2.38;0.60;;;;;;;21.55;52.08;100674.13;5046470;28;20075;-60
2022/09/15 06:41:03;;;;;;;1.90;0.68;;;;;;;21.53;51.96;100674.28;5046720;28;20030;-60
2022/09/15 06:43:30;;;;;;;1.77;0.63;;;;;;;21.53;52.05;100668.88;5046102;28;20094;-60
2022/09/15 06:46:07;;;;;;;2.60;0.90;;;;;;;21.56;51.82;100681.19;5046295;28;20036;-60
2022/09/15 06:48:33;;;;;;;0.95;0.70;;;;;;;21.56;51.68;100676.63;5046137;28;20510;-60
2022/09/15 06:50:59;;;;;;;2.78;1.05;;;;;;;21.56;51.68;100676.63;5046198;28;20128;-60
2022/09/15 06:53:25;;;;;;;1.05;0.60;;;;;;;21.57;51.54;100680.16;5046629;28;20040;-60
2022/09/15 06:55:51;;;;;;;0.50;0.50;;;;;;;21.55;51.63;100684.94;5028307;28;20076;-60
2022/09/15 06:58:16;;;;;;;1.50;0.63;;;;;;;21.56;51.51;100692.00;5045425;28;20033;-60
2022/09/15 07:00:41;;;;;;;2.03;0.80;;;;;;;21.54;51.49;100697.63;5032590;28;20060;-60
2022/09/15 07:03:07;;;;;;;2.20;0.90;;;;;;;21.53;51.56;100701.34;5045977;28;20029;-60
2022/09/15 07:05:32;;;;;;;1.85;0.68;;;;;;;21.52;51.52;100723.19;5031879;28;20017;-60
2022/09/15 07:07:57;;;;;;;1.52;0.65;;;;;;;21.51;51.95;100722.34;5046016;28;20053;-61
2022/09/15 07:10:23;;;;;;;2.10;0.60;;;;;;;21.51;51.68;100733.16;5045589;28;20040;-60
2022/09/15 07:12:48;;;;;;;1.30;0.60;;;;;;;21.51;51.92;100743.16;5046397;28;20559;-60
2022/09/15 07:15:13;;;;;;;0.90;0.70;;;;;;;21.49;51.98;100746.03;5034218;28;20029;-61
2022/09/15 07:17:38;;;;;;;1.27;0.60;;;;;;;21.50;51.97;100749.59;5044181;28;20087;-61
2022/09/15 07:20:04;;;;;;;2.05;0.80;;;;;;;21.50;51.42;100749.59;5033715;28;20040;-61
2022/09/15 07:22:29;;;;;;;2.22;0.80;;;;;;;21.48;51.91;100746.22;5043891;28;20044;-61
2022/09/15 07:24:55;;;;;;;1.13;0.82;;;;;;;21.48;51.93;100747.06;5036234;28;20038;-60
2022/09/15 07:27:25;;;;;;;0.80;0.63;;;;;;;21.49;51.50;100750.59;5041692;28;20215;-60
2022/09/15 07:29:50;;;;;;;1.17;0.68;;;;;;;21.48;51.64;100752.47;5032112;28;20036;-60
2022/09/15 07:32:15;;;;;;;0.93;0.60;;;;;;;21.42;51.74;100739.72;5044385;28;20057;-60
2022/09/15 07:34:40;;;;;;;1.55;0.70;;;;;;;21.48;51.60;100749.78;5031309;28;20026;-60
2022/09/15 07:37:06;;;;;;;1.77;0.68;;;;;;;21.51;51.77;100756.69;5045268;28;20059;-61
2022/09/15 07:39:31;;;;;;;1.25;0.60;;;;;;;21.51;51.33;100751.28;5045025;28;20073;-61
2022/09/15 07:41:57;;;;;;;3.15;0.85;;;;;;;21.55;51.30;100757.97;5032192;28;20033;-61
2022/09/15 07:44:22;;;;;;;2.10;0.60;;;;;;;21.55;51.15;100752.56;5045918;28;20087;-61
2022/09/15 07:46:48;;;;;;;1.77;0.50;;;;;;;21.56;51.69;100755.06;5030905;28;20029;-62
2022/09/15 07:49:13;;;;;;;2.30;0.90;;;;;;;21.58;51.19;100757.56;5045148;28;20061;-61
2022/09/15 07:51:38;;;;;;;1.65;0.60;;;;;;;21.58;51.29;100754.88;5044822;28;20029;-61
2022/09/15 07:54:04;;;;;;;0.82;0.60;;;;;;;21.59;51.22;100762.81;5045703;28;20021;-61
2022/09/15 07:56:29;;;;;;;1.55;0.80;;;;;;;21.59;51.24;100767.41;5044964;28;20022;-61
2022/09/15 07:58:55;;;;;;;2.28;0.70;;;;;;;21.60;51.29;100766.34;5045307;28;20048;-62
2022/09/15 08:01:21;;;;;;;2.05;0.80;;;;;;;21.59;51.31;100770.94;5045151;28;20021;-61
2022/09/15 08:03:48;;;;;;;1.85;0.70;;;;;;;21.59;51.15;100770.94;5044441;28;20061;-61
2022/09/15 08:06:15;;;;;;;2.20;0.60;;;;;;;21.60;51.27;100775.31;5044981;28;20033;-61
2022/09/15 08:08:42;;;;;;;2.65;0.73;;;;;;;21.61;51.30;100774.28;5044106;28;20041;-61
2022/09/15 08:11:15;;;;;;;1.08;0.60;;;;;;;21.62;51.28;100777.81;5027544;28;20041;-61
2022/09/15 08:13:40;;;;;;;0.60;0.50;;;;;;;21.65;50.92;100783.69;5044478;28;20040;-61
2022/09/15 08:16:07;;;;;;;2.60;0.93;;;;;;;21.66;51.19;100777.28;5024693;28;20041;-61
2022/09/15 08:18:33;;;;;;;0.85;0.50;;;;;;;21.70;50.64;100769.59;5039248;28;20037;-61
2022/09/15 08:20:58;;;;;;;1.65;0.80;;;;;;;21.74;50.89;100770.88;5038835;28;20109;-61
2022/09/15 08:23:23;;;;;;;1.08;0.50;;;;;;;21.78;51.18;100777.59;5018512;28;20030;-61
2022/09/15 08:25:50;;;;;;;1.40;0.60;;;;;;;21.82;50.79;100781.59;5041117;28;20030;-61
2022/09/15 08:28:15;;;;;;;0.98;0.50;;;;;;;21.87;50.24;100783.72;5044026;28;20127;-61
2022/09/15 08:30:41;;;;;;;1.05;0.60;;;;;;;21.90;50.22;100781.47;5038642;28;20486;-60
2022/09/15 08:33:06;;;;;;;1.70;0.70;;;;;;;21.93;50.41;100781.09;5041994;28;20044;-61
2022/09/15 08:35:33;;;;;;;0.95;0.55;;;;;;;21.96;50.18;100780.72;5043822;28;20025;-59
2022/09/15 08:37:58;;;;;;;1.08;0.50;;;;;;;;;;5043510;28;20022;-61
2022/09/15 08:40:30;;;;;;;2.83;0.60;;;;;;;22.01;50.26;100773.91;5044152;28;20108;-60
2022/09/15 08:42:59;;;;;;;1.35;0.57;;;;;;;22.01;50.28;100779.31;5043515;28;20048;-59
2022/09/15 08:45:30;;;;;;;1.98;0.60;;;;;;;22.01;50.16;100779.31;5025285;28;20029;-60
2022/09/15 08:47:58;;;;;;;2.35;1.23;;;;;;;22.00;50.00;100766.78;5025715;28;20059;-60
2022/09/15 08:50:26;;;;;;;;;;;;;;;22.04;50.20;100768.91;5039510;28;20017;-60
2022/09/15 08:53:16;;;;;;;1.10;0.50;;;;;;;22.07;49.87;100783.94;5044365;28;19921;-60
2022/09/15 08:55:50;;;;;;;1.13;0.60;;;;;;;22.10;50.12;100776.28;5030761;28;20048;-60
2022/09/15 08:58:19;;;;;;;1.50;0.47;;;;;;;22.14;49.90;100790.31;5025540;28;20035;-59
2022/09/15 09:00:47;;;;;;;2.25;0.73;;;;;;;22.16;49.69;100785.53;5043602;28;20033;-60
2022/09/15 09:03:51;;;;;;;1.38;0.63;;;;;;;22.21;49.71;100783.91;5008503;28;20068;-60
2022/09/15 09:06:38;;;;;;;2.40;0.65;;;;;;;22.26;49.84;100785.19;5046951;28;20068;-59
2022/09/15 09:09:37;;;;;;;0.73;0.50;;;;;;;22.31;49.68;100788.19;5048876;28;20029;-58
2022/09/15 09:12:31;;;;;;;1.10;0.60;;;;;;;22.34;49.34;100794.03;5042157;28;20021;-59
2022/09/15 09:15:08;;;;;;;1.33;0.50;;;;;;;22.38;49.39;100776.34;5041883;28;20096;-59
2022/09/15 09:17:59;;;;;;;1.27;0.57;;;;;;;22.40;49.26;100773.47;5040602;28;20026;-59
2022/09/15 09:20:53;;;;;;;1.33;0.60;;;;;;;22.41;49.37;100777.84;5037155;28;20041;-58
2022/09/15 09:23:22;;;;;;;1.75;0.43;;;;;;;22.35;49.29;100765.94;5010377;28;20072;-58
2022/09/15 09:25:48;;;;;;;;;;;;;;;22.41;49.30;100783.25;5028325;28;20086;-59
2022/09/15 09:28:26;;;;;;;1.67;0.40;;;;;;;22.43;49.10;100787.47;5011365;28;20361;-58
2022/09/15 09:30:51;;;;;;;0.98;0.40;;;;;;;22.36;49.39;100764.06;5012509;28;20029;-58
2022/09/15 09:33:23;;;;;;;2.20;0.63;;;;;;;22.49;49.29;100774.16;5024073;28;20034;-58
2022/09/15 09:35:51;;;;;;;1.33;0.52;;;;;;;22.52;49.13;100779.22;5043032;28;20021;-58
2022/09/15 09:38:21;;;;;;;0.80;0.40;;;;;;;22.56;48.68;100775.91;5042719;28;20100;-59
2022/09/15 09:40:46;;;;;;;1.60;0.60;;;;;;;22.60;48.85;100770.91;5025767;28;20029;-59
2022/09/15 09:43:12;;;;;;;0.60;0.40;;;;;;;22.64;48.88;100775.78;5027712;28;20128;-59
2022/09/15 09:45:37;;;;;;;1.50;0.57;;;;;;;22.68;48.71;100771.63;5054726;28;20116;-59
2022/09/15 09:48:14;;;;;;;1.05;0.50;;;;;;;22.74;48.56;100780.00;5042455;28;20025;-59
2022/09/15 09:50:42;;;;;;;0.73;0.40;;;;;;;22.69;48.31;100757.03;5035002;28;20026;-59
2022/09/15 09:53:31;;;;;;;0.90;0.45;;;;;;;22.81;48.56;100781.72;5037616;28;20107;-60
2022/09/15 09:56:15;;;;;;;2.20;0.70;;;;;;;22.84;48.46;100772.34;5033459;28;20081;-60
2022/09/15 09:58:40;;;;;;;4.80;0.63;;;;;;;22.87;48.20;100775.50;5040623;28;20056;-59
2022/09/15 10:01:13;;;;;;;1.08;0.40;;;;;;;22.88;48.00;100766.31;5032994;28;20669;-59
2022/09/15 10:03:40;;;;;;;0.98;0.45;;;;;;;22.91;48.21;100773.28;5039505;28;20030;-59
2022/09/15 10:06:11;;;;;;;1.15;0.50;;;;;;;22.89;47.90;100778.84;5033622;28;20037;-60
2022/09/15 10:08:51;;;;;;;2.25;0.60;;;;;;;22.87;47.97;100786.34;5021117;28;20037;-60
2022/09/15 10:11:16;;;;;;;1.75;0.77;;;;;;;22.84;48.12;100775.91;5025269;28;20053;-60
2022/09/15 10:13:51;;;;;;;1.50;0.60;;;;;;;22.81;48.26;100783.56;5042757;28;20021;-59
2022/09/15 10:16:17;;;;;;;0.68;0.38;;;;;;;22.77;48.30;100771.44;5042906;28;20089;-60
2022/09/15 10:18:43;;;;;;;1.40;0.50;;;;;;;22.73;48.31;100767.50;5042193;28;20477;-60
2022/09/15 10:21:08;;;;;;;1.13;0.40;;;;;;;22.70;48.44;100760.59;5042804;28;20112;-60
2022/09/15 10:23:34;;;;;;;0.70;0.40;;;;;;;22.70;48.32;100769.53;5025286;28;20024;-60
2022/09/15 10:26:15;;;;;;;1.10;0.50;;;;;;;22.74;48.31;100763.75;5042876;28;20025;-60
2022/09/15 10:28:41;;;;;;;0.88;0.50;;;;;;;22.76;48.26;100764.38;5042114;28;20021;-59
2022/09/15 10:31:14;;;;;;;0.80;0.50;;;;;;;22.75;48.18;100765.41;5043941;28;20072;-60
2022/09/15 10:33:42;;;;;;;1.30;0.50;;;;;;;22.76;48.33;100767.06;5034037;28;20540;-60
2022/09/15 10:36:35;;;;;;;0.73;0.60;;;;;;;22.62;48.26;100745.31;5026693;28;20026;-60
2022/09/15 10:39:17;;;;;;;1.38;0.55;;;;;;;22.66;48.53;100770.97;5031829;28;20057;-60
2022/09/15 10:42:00;;;;;;;1.77;0.40;;;;;;;22.60;48.67;100769.06;5007595;28;20022;-60
2022/09/15 10:44:39;;;;;;;2.30;0.75;;;;;;;22.54;48.70;100772.53;5008629;28;20030;-60
2022/09/15 10:47:26;;;;;;;2.40;0.52;;;;;;;22.49;48.83;100768.75;5011548;28;20029;-59
2022/09/15 10:50:15;;;;;;;1.25;0.70;;;;;;;22.45;49.00;100769.13;5023357;28;20037;-59
2022/09/15 10:52:52;;;;;;;1.80;0.60;;;;;;;22.42;48.86;100764.09;5023896;28;20030;-59
2022/09/15 10:55:43;;;;;;;1.40;0.55;;;;;;;22.40;48.88;100762.63;5025611;28;20030;-60
2022/09/15 10:58:23;;;;;;;2.60;0.85;;;;;;;22.41;48.93;100767.84;5011389;28;20041;-60
2022/09/15 11:01:05;;;;;;;1.13;0.70;;;;;;;22.43;49.22;100756.84;5017259;28;20025;-60
2022/09/15 11:03:49;;;;;;;1.00;0.60;;;;;;;22.45;49.01;100768.31;5012065;28;20033;-60
2022/09/15 11:06:49;;;;;;;0.80;0.40;;;;;;;22.46;49.03;100772.69;5023606;28;20076;-59
2022/09/15 11:09:24;;;;;;;2.70;1.38;;;;;;;22.48;49.30;100767.09;4967808;28;20030;-60
2022/09/15 11:12:21;;;;;;;1.38;0.50;;;;;;;22.51;49.21;100764.78;4984365;28;20042;-60
2022/09/15 11:15:20;;;;;;;0.85;0.40;;;;;;;22.56;49.22;100772.38;4969348;28;20063;-59
2022/09/15 11:18:13;;;;;;;0.98;0.50;;;;;;;22.58;49.05;100764.88;4983584;28;20027;-60
2022/09/15 11:21:27;;;;;;;1.48;0.63;;;;;;;22.55;49.07;100757.94;4984198;28;20046;-60
2022/09/15 11:24:18;;;;;;;2.13;0.40;;;;;;;22.51;49.15;100764.78;4975885;28;20190;-60
2022/09/15 11:26:48;;;;;;;1.23;0.55;;;;;;;22.45;49.32;100782.69;4988172;28;20042;-59
2022/09/15 11:29:58;;;;;;;0.85;0.70;;;;;;;22.39;49.47;100780.75;4984335;28;20035;-60
2022/09/15 11:32:45;;;;;;;1.08;0.65;;;;;;;22.33;49.58;100789.66;4937040;29;20071;-60
2022/09/15 11:35:37;;;;;;;1.13;0.60;;;;;;;22.27;49.61;100792.31;4891881;29;20098;-60
2022/09/15 11:38:17;;;;;;;2.15;0.73;;;;;;;22.23;49.78;100788.31;4917630;29;20044;-59
2022/09/15 11:40:51;;;;;;;1.85;0.60;;;;;;;22.19;49.93;100801.41;4945937;29;20174;-60